sensor_id;sensor_type;location;lat;lon;timestamp;pressure;altitude;pressure_sealevel;temperature;humidity
14204;BME280;7185;51.854;6.622;2023-11-19T00:01:26;100516.88;;;16.53;79.62
14204;BME280;7185;51.854;6.622;2023-11-19T00:03:57;100516.97;;;16.51;80.51
14204;BME280;7185;51.854;6.622;2023-11-19T00:06:29;100522.28;;;16.50;80.20
14204;BME280;7185;51.854;6.622;2023-11-19T00:09:01;100522.81;;;16.58;79.49
14204;BME280;7185;51.854;6.622;2023-11-19T00:11:37;100519.97;;;16.63;80.44
14204;BME280;7185;51.854;6.622;2023-11-19T00:14:09;100509.78;;;16.53;81.27
14204;BME280;7185;51.854;6.622;2023-11-19T00:16:42;100508.38;;;16.65;80.52
14204;BME280;7185;51.854;6.622;2023-11-19T00:19:14;100504.03;;;16.83;79.14
14204;BME280;7185;51.854;6.622;2023-11-19T00:21:47;100502.47;;;16.79;79.77
14204;BME280;7185;51.854;6.622;2023-11-19T00:24:19;100503.69;;;16.72;79.86
14204;BME280;7185;51.854;6.622;2023-11-19T00:26:51;100495.88;;;16.88;79.82
14204;BME280;7185;51.854;6.622;2023-11-19T00:29:26;100504.31;;;16.77;79.83
14204;BME280;7185;51.854;6.622;2023-11-19T00:32:04;100494.34;;;17.03;78.35
14204;BME280;7185;51.854;6.622;2023-11-19T00:34:38;100491.81;;;16.81;79.67
14204;BME280;7185;51.854;6.622;2023-11-19T00:37:09;100483.09;;;16.98;79.53
14204;BME280;7185;51.854;6.622;2023-11-19T00:39:41;100476.97;;;16.97;79.49
14204;BME280;7185;51.854;6.622;2023-11-19T00:42:17;100475.91;;;16.81;80.60
14204;BME280;7185;51.854;6.622;2023-11-19T00:44:58;100470.44;;;17.04;79.05
14204;BME280;7185;51.854;6.622;2023-11-19T00:47:33;100470.78;;;17.16;79.04
14204;BME280;7185;51.854;6.622;2023-11-19T00:50:08;100460.59;;;17.26;79.06
14204;BME280;7185;51.854;6.622;2023-11-19T00:52:41;100469.06;;;17.15;79.50
14204;BME280;7185;51.854;6.622;2023-11-19T00:55:15;100459.91;;;16.84;80.85
14204;BME280;7185;51.854;6.622;2023-11-19T00:57:55;100463.06;;;17.11;80.30
14204;BME280;7185;51.854;6.622;2023-11-19T01:00:27;100466.16;;;16.81;80.33
14204;BME280;7185;51.854;6.622;2023-11-19T01:03:03;100459.22;;;17.36;79.19
14204;BME280;7185;51.854;6.622;2023-11-19T01:05:37;100472.47;;;17.36;79.33
14204;BME280;7185;51.854;6.622;2023-11-19T01:08:11;100462.44;;;17.24;78.92
14204;BME280;7185;51.854;6.622;2023-11-19T01:10:46;100461.38;;;17.28;79.31
14204;BME280;7185;51.854;6.622;2023-11-19T01:13:18;100457.31;;;17.20;80.01
14204;BME280;7185;51.854;6.622;2023-11-19T01:15:51;100447.97;;;17.31;80.32
14204;BME280;7185;51.854;6.622;2023-11-19T01:18:25;100440.31;;;17.25;80.48
14204;BME280;7185;51.854;6.622;2023-11-19T01:20:56;100446.06;;;17.52;79.46
14204;BME280;7185;51.854;6.622;2023-11-19T01:23:28;100455.03;;;17.67;78.59
14204;BME280;7185;51.854;6.622;2023-11-19T01:26:03;100444.53;;;17.65;78.84
14204;BME280;7185;51.854;6.622;2023-11-19T01:28:36;100429.16;;;17.55;79.79
14204;BME280;7185;51.854;6.622;2023-11-19T01:31:10;100413.50;;;17.67;78.53
14204;BME280;7185;51.854;6.622;2023-11-19T01:33:45;100398.09;;;17.39;79.93
14204;BME280;7185;51.854;6.622;2023-11-19T01:36:18;100414.31;;;17.33;81.05
14204;BME280;7185;51.854;6.622;2023-11-19T01:38:54;100428.22;;;17.56;79.59
14204;BME280;7185;51.854;6.622;2023-11-19T01:41:26;100433.03;;;17.30;80.53
14204;BME280;7185;51.854;6.622;2023-11-19T01:43:58;100425.47;;;17.40;80.20
14204;BME280;7185;51.854;6.622;2023-11-19T01:46:30;100431.13;;;17.14;81.45
14204;BME280;7185;51.854;6.622;2023-11-19T01:49:04;100428.06;;;17.59;79.93
14204;BME280;7185;51.854;6.622;2023-11-19T01:51:37;100422.91;;;17.73;79.01
14204;BME280;7185;51.854;6.622;2023-11-19T01:54:18;100432.53;;;17.76;77.83
14204;BME280;7185;51.854;6.622;2023-11-19T01:56:50;100425.56;;;17.56;79.10
14204;BME280;7185;51.854;6.622;2023-11-19T01:59:24;100423.00;;;17.54;79.46
14204;BME280;7185;51.854;6.622;2023-11-19T02:01:59;100431.50;;;17.61;79.59
14204;BME280;7185;51.854;6.622;2023-11-19T02:04:32;100429.00;;;17.58;79.50
14204;BME280;7185;51.854;6.622;2023-11-19T02:07:06;100425.25;;;17.62;79.64
14204;BME280;7185;51.854;6.622;2023-11-19T02:09:42;100419.63;;;17.68;78.92
14204;BME280;7185;51.854;6.622;2023-11-19T02:12:14;100421.19;;;17.37;80.56
14204;BME280;7185;51.854;6.622;2023-11-19T02:14:48;100417.91;;;17.67;78.72
14204;BME280;7185;51.854;6.622;2023-11-19T02:17:26;100414.50;;;17.65;79.26
14204;BME280;7185;51.854;6.622;2023-11-19T02:20:00;100410.13;;;17.46;79.60
14204;BME280;7185;51.854;6.622;2023-11-19T02:22:31;100406.69;;;17.62;79.28
14204;BME280;7185;51.854;6.622;2023-11-19T02:25:06;100408.25;;;17.66;79.22
14204;BME280;7185;51.854;6.622;2023-11-19T02:27:48;100408.97;;;17.52;79.33
14204;BME280;7185;51.854;6.622;2023-11-19T02:30:26;100401.56;;;17.76;78.60
14204;BME280;7185;51.854;6.622;2023-11-19T02:32:59;100396.41;;;17.56;78.41
14204;BME280;7185;51.854;6.622;2023-11-19T02:35:35;100394.00;;;17.33;80.15
14204;BME280;7185;51.854;6.622;2023-11-19T02:38:19;100391.50;;;17.48;79.55
14204;BME280;7185;51.854;6.622;2023-11-19T02:40:52;100389.47;;;17.53;78.77
14204;BME280;7185;51.854;6.622;2023-11-19T02:43:25;100377.53;;;17.62;78.99
14204;BME280;7185;51.854;6.622;2023-11-19T02:45:57;100383.06;;;17.75;78.56
14204;BME280;7185;51.854;6.622;2023-11-19T02:48:28;100383.47;;;17.49;79.12
14204;BME280;7185;51.854;6.622;2023-11-19T02:51:01;100387.22;;;17.63;78.06
14204;BME280;7185;51.854;6.622;2023-11-19T02:53:33;100389.88;;;17.63;77.84
14204;BME280;7185;51.854;6.622;2023-11-19T02:56:06;100378.94;;;17.69;78.16
14204;BME280;7185;51.854;6.622;2023-11-19T02:58:46;100386.34;;;17.62;78.15
14204;BME280;7185;51.854;6.622;2023-11-19T03:01:23;100389.00;;;17.45;79.17
14204;BME280;7185;51.854;6.622;2023-11-19T03:04:00;100386.41;;;17.61;78.62
14204;BME280;7185;51.854;6.622;2023-11-19T03:06:32;100386.75;;;17.55;78.35
14204;BME280;7185;51.854;6.622;2023-11-19T03:09:04;100389.06;;;17.78;77.42
14204;BME280;7185;51.854;6.622;2023-11-19T03:11:40;100391.91;;;17.58;78.22
14204;BME280;7185;51.854;6.622;2023-11-19T03:14:13;100401.28;;;17.28;78.94
14204;BME280;7185;51.854;6.622;2023-11-19T03:16:45;100391.94;;;17.56;78.37
14204;BME280;7185;51.854;6.622;2023-11-19T03:19:17;100409.00;;;17.15;78.65
14204;BME280;7185;51.854;6.622;2023-11-19T03:21:49;100385.78;;;17.20;79.10
14204;BME280;7185;51.854;6.622;2023-11-19T03:24:21;100402.91;;;17.13;78.99
14204;BME280;7185;51.854;6.622;2023-11-19T03:26:52;100410.66;;;16.99;78.64
14204;BME280;7185;51.854;6.622;2023-11-19T03:29:25;100416.34;;;17.28;78.20
14204;BME280;7185;51.854;6.622;2023-11-19T03:31:59;100406.63;;;17.09;78.98
14204;BME280;7185;51.854;6.622;2023-11-19T03:34:30;100407.34;;;17.13;78.19
14204;BME280;7185;51.854;6.622;2023-11-19T03:37:02;100401.41;;;16.88;78.08
14204;BME280;7185;51.854;6.622;2023-11-19T03:39:37;100403.22;;;17.07;77.46
14204;BME280;7185;51.854;6.622;2023-11-19T03:42:09;100404.50;;;17.52;76.00
14204;BME280;7185;51.854;6.622;2023-11-19T03:44:43;100405.31;;;17.37;76.18
14204;BME280;7185;51.854;6.622;2023-11-19T03:47:15;100411.75;;;16.95;77.72
14204;BME280;7185;51.854;6.622;2023-11-19T03:49:48;100396.47;;;17.19;76.76
14204;BME280;7185;51.854;6.622;2023-11-19T03:52:20;100398.41;;;17.33;76.60
14204;BME280;7185;51.854;6.622;2023-11-19T03:54:51;100408.16;;;17.32;76.46
14204;BME280;7185;51.854;6.622;2023-11-19T03:57:23;100398.91;;;17.41;76.13
14204;BME280;7185;51.854;6.622;2023-11-19T03:59:57;100399.69;;;17.43;75.52
14204;BME280;7185;51.854;6.622;2023-11-19T04:02:29;100403.94;;;17.28;76.67
14204;BME280;7185;51.854;6.622;2023-11-19T04:05:01;100408.03;;;17.16;77.35
14204;BME280;7185;51.854;6.622;2023-11-19T04:07:33;100408.16;;;17.32;76.71
14204;BME280;7185;51.854;6.622;2023-11-19T04:10:07;100417.19;;;17.28;76.44
14204;BME280;7185;51.854;6.622;2023-11-19T04:12:39;100419.53;;;16.98;76.95
14204;BME280;7185;51.854;6.622;2023-11-19T04:15:12;100422.59;;;17.08;76.67
14204;BME280;7185;51.854;6.622;2023-11-19T04:17:44;100420.69;;;16.92;77.23
14204;BME280;7185;51.854;6.622;2023-11-19T04:20:16;100416.66;;;17.22;75.84
14204;BME280;7185;51.854;6.622;2023-11-19T04:22:49;100417.38;;;16.68;77.06
14204;BME280;7185;51.854;6.622;2023-11-19T04:25:21;100413.88;;;16.86;76.04
14204;BME280;7185;51.854;6.622;2023-11-19T04:27:53;100402.91;;;16.75;76.19
14204;BME280;7185;51.854;6.622;2023-11-19T04:30:26;100400.28;;;16.75;75.88
14204;BME280;7185;51.854;6.622;2023-11-19T04:32:58;100417.66;;;16.62;76.10
14204;BME280;7185;51.854;6.622;2023-11-19T04:35:29;100415.44;;;16.71;75.19
14204;BME280;7185;51.854;6.622;2023-11-19T04:38:01;100405.69;;;16.93;74.68
14204;BME280;7185;51.854;6.622;2023-11-19T04:40:33;100409.81;;;16.79;75.31
14204;BME280;7185;51.854;6.622;2023-11-19T04:43:07;100423.38;;;16.91;74.57
14204;BME280;7185;51.854;6.622;2023-11-19T04:45:40;100428.97;;;16.84;74.34
14204;BME280;7185;51.854;6.622;2023-11-19T04:48:11;100426.81;;;16.54;75.50
14204;BME280;7185;51.854;6.622;2023-11-19T04:50:44;100427.41;;;16.61;74.73
14204;BME280;7185;51.854;6.622;2023-11-19T04:53:15;100433.19;;;16.50;75.13
14204;BME280;7185;51.854;6.622;2023-11-19T04:55:47;100432.69;;;16.42;74.85
14204;BME280;7185;51.854;6.622;2023-11-19T04:58:19;100423.97;;;16.59;74.87
14204;BME280;7185;51.854;6.622;2023-11-19T05:00:52;100426.75;;;16.37;75.07
14204;BME280;7185;51.854;6.622;2023-11-19T05:03:24;100429.94;;;16.24;75.84
14204;BME280;7185;51.854;6.622;2023-11-19T05:05:55;100422.91;;;16.44;74.99
14204;BME280;7185;51.854;6.622;2023-11-19T05:08:27;100428.50;;;16.17;75.29
14204;BME280;7185;51.854;6.622;2023-11-19T05:10:59;100429.94;;;16.24;74.73
14204;BME280;7185;51.854;6.622;2023-11-19T05:13:30;100436.31;;;16.39;73.84
14204;BME280;7185;51.854;6.622;2023-11-19T05:16:04;100429.63;;;16.51;73.77
14204;BME280;7185;51.854;6.622;2023-11-19T05:18:36;100436.81;;;16.29;74.54
14204;BME280;7185;51.854;6.622;2023-11-19T05:21:08;100439.28;;;16.52;73.58
14204;BME280;7185;51.854;6.622;2023-11-19T05:23:40;100432.56;;;16.45;73.37
14204;BME280;7185;51.854;6.622;2023-11-19T05:26:18;100434.69;;;16.37;73.38
14204;BME280;7185;51.854;6.622;2023-11-19T05:28:50;100441.94;;;16.32;73.30
14204;BME280;7185;51.854;6.622;2023-11-19T05:31:23;100430.66;;;16.47;73.24
14204;BME280;7185;51.854;6.622;2023-11-19T05:33:55;100425.53;;;16.44;72.51
14204;BME280;7185;51.854;6.622;2023-11-19T05:36:27;100432.63;;;16.23;73.02
14204;BME280;7185;51.854;6.622;2023-11-19T05:38:59;100434.03;;;16.11;73.46
14204;BME280;7185;51.854;6.622;2023-11-19T05:41:31;100437.47;;;16.13;73.40
14204;BME280;7185;51.854;6.622;2023-11-19T05:44:03;100443.66;;;16.33;72.11
14204;BME280;7185;51.854;6.622;2023-11-19T05:46:37;100438.53;;;16.30;72.60
14204;BME280;7185;51.854;6.622;2023-11-19T05:49:12;100450.56;;;16.37;71.73
14204;BME280;7185;51.854;6.622;2023-11-19T05:51:44;100456.19;;;16.08;72.85
14204;BME280;7185;51.854;6.622;2023-11-19T05:54:16;100455.84;;;15.75;73.58
14204;BME280;7185;51.854;6.622;2023-11-19T05:56:49;100449.88;;;15.92;73.40
14204;BME280;7185;51.854;6.622;2023-11-19T05:59:24;100455.88;;;15.96;72.96
14204;BME280;7185;51.854;6.622;2023-11-19T06:01:58;100456.09;;;15.91;73.02
14204;BME280;7185;51.854;6.622;2023-11-19T06:04:30;100458.91;;;16.07;71.45
14204;BME280;7185;51.854;6.622;2023-11-19T06:07:02;100452.56;;;16.11;72.23
14204;BME280;7185;51.854;6.622;2023-11-19T06:09:33;100457.72;;;15.93;72.65
14204;BME280;7185;51.854;6.622;2023-11-19T06:12:06;100447.78;;;16.19;71.62
14204;BME280;7185;51.854;6.622;2023-11-19T06:14:38;100462.75;;;16.00;71.82
14204;BME280;7185;51.854;6.622;2023-11-19T06:17:11;100461.69;;;16.04;71.10
14204;BME280;7185;51.854;6.622;2023-11-19T06:19:43;100456.72;;;15.96;71.85
14204;BME280;7185;51.854;6.622;2023-11-19T06:22:15;100453.69;;;16.05;71.71
14204;BME280;7185;51.854;6.622;2023-11-19T06:24:47;100456.66;;;16.18;71.75
14204;BME280;7185;51.854;6.622;2023-11-19T06:27:18;100461.38;;;16.12;71.12
14204;BME280;7185;51.854;6.622;2023-11-19T06:29:50;100463.66;;;16.19;70.74
14204;BME280;7185;51.854;6.622;2023-11-19T06:32:24;100466.91;;;16.26;70.83
14204;BME280;7185;51.854;6.622;2023-11-19T06:34:56;100469.34;;;16.31;70.48
14204;BME280;7185;51.854;6.622;2023-11-19T06:37:27;100478.03;;;16.53;69.94
14204;BME280;7185;51.854;6.622;2023-11-19T06:39:59;100464.47;;;16.01;71.08
14204;BME280;7185;51.854;6.622;2023-11-19T06:42:31;100477.69;;;16.21;70.65
14204;BME280;7185;51.854;6.622;2023-11-19T06:45:04;100479.41;;;16.02;70.72
14204;BME280;7185;51.854;6.622;2023-11-19T06:47:38;100477.75;;;16.20;70.56
14204;BME280;7185;51.854;6.622;2023-11-19T06:50:09;100473.84;;;16.29;69.64
14204;BME280;7185;51.854;6.622;2023-11-19T06:52:42;100481.06;;;16.25;70.11
14204;BME280;7185;51.854;6.622;2023-11-19T06:55:14;100482.50;;;16.32;69.97
14204;BME280;7185;51.854;6.622;2023-11-19T06:57:47;100484.94;;;16.37;69.90
14204;BME280;7185;51.854;6.622;2023-11-19T07:00:19;100479.72;;;16.35;69.83
14204;BME280;7185;51.854;6.622;2023-11-19T07:02:52;100475.88;;;16.22;70.16
14204;BME280;7185;51.854;6.622;2023-11-19T07:05:24;100474.41;;;16.35;69.41
14204;BME280;7185;51.854;6.622;2023-11-19T07:07:56;100475.31;;;15.95;71.01
14204;BME280;7185;51.854;6.622;2023-11-19T07:10:27;100471.94;;;16.12;70.14
14204;BME280;7185;51.854;6.622;2023-11-19T07:13:03;100482.44;;;15.92;70.58
14204;BME280;7185;51.854;6.622;2023-11-19T07:15:37;100477.81;;;16.18;69.84
14204;BME280;7185;51.854;6.622;2023-11-19T07:18:10;100488.84;;;15.87;70.81
14204;BME280;7185;51.854;6.622;2023-11-19T07:20:42;100484.53;;;16.25;69.60
14204;BME280;7185;51.854;6.622;2023-11-19T07:23:14;100495.41;;;16.19;69.78
14204;BME280;7185;51.854;6.622;2023-11-19T07:25:47;100496.41;;;16.17;70.01
14204;BME280;7185;51.854;6.622;2023-11-19T07:28:20;100499.38;;;16.09;70.35
14204;BME280;7185;51.854;6.622;2023-11-19T07:30:52;100499.84;;;16.19;69.89
14204;BME280;7185;51.854;6.622;2023-11-19T07:33:27;100502.22;;;16.04;70.17
14204;BME280;7185;51.854;6.622;2023-11-19T07:35:59;100503.88;;;16.07;70.00
14204;BME280;7185;51.854;6.622;2023-11-19T07:38:31;100502.13;;;16.47;68.99
14204;BME280;7185;51.854;6.622;2023-11-19T07:41:03;100513.13;;;16.38;69.10
14204;BME280;7185;51.854;6.622;2023-11-19T07:43:35;100519.53;;;16.53;69.12
14204;BME280;7185;51.854;6.622;2023-11-19T07:46:10;100520.00;;;16.42;69.26
14204;BME280;7185;51.854;6.622;2023-11-19T07:48:45;100521.72;;;16.22;70.12
14204;BME280;7185;51.854;6.622;2023-11-19T07:51:18;100521.19;;;16.35;69.71
14204;BME280;7185;51.854;6.622;2023-11-19T07:53:49;100523.56;;;16.41;69.45
14204;BME280;7185;51.854;6.622;2023-11-19T07:56:21;100525.13;;;16.66;68.86
14204;BME280;7185;51.854;6.622;2023-11-19T07:58:53;100530.72;;;16.60;69.11
14204;BME280;7185;51.854;6.622;2023-11-19T08:01:25;100542.47;;;16.73;68.43
14204;BME280;7185;51.854;6.622;2023-11-19T08:03:58;100546.13;;;16.29;69.86
14204;BME280;7185;51.854;6.622;2023-11-19T08:06:32;100547.66;;;16.35;69.35
14204;BME280;7185;51.854;6.622;2023-11-19T08:09:04;100543.94;;;16.39;69.44
14204;BME280;7185;51.854;6.622;2023-11-19T08:11:36;100544.50;;;16.66;68.54
14204;BME280;7185;51.854;6.622;2023-11-19T08:14:10;100545.25;;;16.70;68.46
14204;BME280;7185;51.854;6.622;2023-11-19T08:16:42;100547.72;;;16.54;68.89
14204;BME280;7185;51.854;6.622;2023-11-19T08:19:15;100545.09;;;16.33;69.39
14204;BME280;7185;51.854;6.622;2023-11-19T08:21:47;100543.28;;;16.54;69.40
14204;BME280;7185;51.854;6.622;2023-11-19T08:24:19;100548.84;;;16.48;69.86
14204;BME280;7185;51.854;6.622;2023-11-19T08:26:50;100546.44;;;16.63;68.79
14204;BME280;7185;51.854;6.622;2023-11-19T08:29:22;100540.31;;;16.81;68.23
14204;BME280;7185;51.854;6.622;2023-11-19T08:31:55;100549.63;;;16.71;68.57
14204;BME280;7185;51.854;6.622;2023-11-19T08:34:28;100543.75;;;16.83;67.90
14204;BME280;7185;51.854;6.622;2023-11-19T08:36:59;100537.34;;;16.89;67.93
14204;BME280;7185;51.854;6.622;2023-11-19T08:39:31;100545.47;;;17.05;68.03
14204;BME280;7185;51.854;6.622;2023-11-19T08:42:08;100541.88;;;17.06;67.53
14204;BME280;7185;51.854;6.622;2023-11-19T08:44:40;100547.59;;;17.35;67.00
14204;BME280;7185;51.854;6.622;2023-11-19T08:47:14;100545.09;;;17.32;66.54
14204;BME280;7185;51.854;6.622;2023-11-19T08:49:47;100538.34;;;17.25;65.79
14204;BME280;7185;51.854;6.622;2023-11-19T08:52:19;100537.84;;;17.16;65.77
14204;BME280;7185;51.854;6.622;2023-11-19T08:54:51;100545.03;;;17.33;65.80
14204;BME280;7185;51.854;6.622;2023-11-19T08:57:23;100551.69;;;17.42;66.01
14204;BME280;7185;51.854;6.622;2023-11-19T08:59:54;100541.16;;;17.41;65.92
14204;BME280;7185;51.854;6.622;2023-11-19T09:02:26;100546.50;;;17.39;66.05
14204;BME280;7185;51.854;6.622;2023-11-19T09:04:59;100554.84;;;17.12;66.01
14204;BME280;7185;51.854;6.622;2023-11-19T09:07:32;100551.97;;;17.36;65.88
14204;BME280;7185;51.854;6.622;2023-11-19T09:10:04;100552.28;;;17.30;65.53
14204;BME280;7185;51.854;6.622;2023-11-19T09:16:39;100549.97;;;17.41;65.93
14204;BME280;7185;51.854;6.622;2023-11-19T09:19:19;100554.34;;;17.79;65.01
14204;BME280;7185;51.854;6.622;2023-11-19T09:21:57;100548.09;;;17.43;65.05
14204;BME280;7185;51.854;6.622;2023-11-19T09:24:29;100547.06;;;17.65;64.92
14204;BME280;7185;51.854;6.622;2023-11-19T09:27:01;100549.34;;;17.73;64.22
14204;BME280;7185;51.854;6.622;2023-11-19T09:29:32;100548.31;;;17.75;65.06
14204;BME280;7185;51.854;6.622;2023-11-19T09:32:06;100537.41;;;17.81;65.03
14204;BME280;7185;51.854;6.622;2023-11-19T09:34:37;100545.91;;;17.51;65.32
14204;BME280;7185;51.854;6.622;2023-11-19T09:37:11;100549.03;;;17.42;65.62
14204;BME280;7185;51.854;6.622;2023-11-19T09:39:42;100552.41;;;17.27;65.81
14204;BME280;7185;51.854;6.622;2023-11-19T09:42:15;100549.66;;;17.09;66.34
14204;BME280;7185;51.854;6.622;2023-11-19T09:44:48;100553.03;;;17.51;65.43
14204;BME280;7185;51.854;6.622;2023-11-19T09:47:20;100543.22;;;17.34;65.20
14204;BME280;7185;51.854;6.622;2023-11-19T09:49:53;100546.31;;;17.44;65.19
14204;BME280;7185;51.854;6.622;2023-11-19T09:52:33;100556.09;;;17.42;64.80
14204;BME280;7185;51.854;6.622;2023-11-19T09:55:05;100541.72;;;17.09;65.53
14204;BME280;7185;51.854;6.622;2023-11-19T09:57:38;100540.97;;;17.26;65.56
14204;BME280;7185;51.854;6.622;2023-11-19T10:00:12;100543.31;;;17.32;65.69
14204;BME280;7185;51.854;6.622;2023-11-19T10:02:45;100540.00;;;17.27;65.69
14204;BME280;7185;51.854;6.622;2023-11-19T10:05:20;100532.59;;;17.72;64.67
14204;BME280;7185;51.854;6.622;2023-11-19T10:07:55;100536.50;;;17.63;65.17
14204;BME280;7185;51.854;6.622;2023-11-19T10:10:28;100539.44;;;17.76;64.81
14204;BME280;7185;51.854;6.622;2023-11-19T10:12:59;100534.38;;;17.52;64.75
14204;BME280;7185;51.854;6.622;2023-11-19T10:15:35;100537.22;;;17.30;64.89
14204;BME280;7185;51.854;6.622;2023-11-19T10:18:07;100540.16;;;17.43;65.22
14204;BME280;7185;51.854;6.622;2023-11-19T10:20:41;100539.50;;;17.38;65.14
14204;BME280;7185;51.854;6.622;2023-11-19T10:23:14;100538.59;;;17.76;64.58
14204;BME280;7185;51.854;6.622;2023-11-19T10:25:46;100521.78;;;18.29;64.44
14204;BME280;7185;51.854;6.622;2023-11-19T10:28:21;100520.53;;;18.02;63.17
14204;BME280;7185;51.854;6.622;2023-11-19T10:31:21;100512.66;;;18.18;62.41
14204;BME280;7185;51.854;6.622;2023-11-19T10:34:25;100521.06;;;18.26;62.45
14204;BME280;7185;51.854;6.622;2023-11-19T10:36:57;100525.19;;;17.60;63.97
14204;BME280;7185;51.854;6.622;2023-11-19T10:39:51;100510.88;;;18.18;62.46
14204;BME280;7185;51.854;6.622;2023-11-19T10:42:24;100527.63;;;18.01;62.96
14204;BME280;7185;51.854;6.622;2023-11-19T10:44:56;100522.19;;;18.22;63.14
14204;BME280;7185;51.854;6.622;2023-11-19T10:47:29;100529.41;;;17.83;63.55
14204;BME280;7185;51.854;6.622;2023-11-19T10:50:02;100530.31;;;17.45;64.28
14204;BME280;7185;51.854;6.622;2023-11-19T10:52:34;100514.28;;;17.48;64.07
14204;BME280;7185;51.854;6.622;2023-11-19T10:55:08;100523.75;;;17.35;64.47
14204;BME280;7185;51.854;6.622;2023-11-19T10:57:47;100517.19;;;17.98;63.72
14204;BME280;7185;51.854;6.622;2023-11-19T11:00:24;100522.25;;;18.20;62.55
14204;BME280;7185;51.854;6.622;2023-11-19T11:03:00;100509.84;;;18.21;62.75
14204;BME280;7185;51.854;6.622;2023-11-19T11:05:32;100508.28;;;18.16;63.16
14204;BME280;7185;51.854;6.622;2023-11-19T11:08:06;100504.88;;;18.14;62.80
14204;BME280;7185;51.854;6.622;2023-11-19T11:10:43;100510.22;;;17.59;63.83
14204;BME280;7185;51.854;6.622;2023-11-19T11:13:15;100503.75;;;18.19;62.28
14204;BME280;7185;51.854;6.622;2023-11-19T11:15:48;100513.41;;;17.84;62.84
14204;BME280;7185;51.854;6.622;2023-11-19T11:18:23;100506.97;;;18.08;62.60
14204;BME280;7185;51.854;6.622;2023-11-19T11:21:01;100505.63;;;18.16;62.14
14204;BME280;7185;51.854;6.622;2023-11-19T11:24:12;100503.28;;;18.28;62.69
14204;BME280;7185;51.854;6.622;2023-11-19T11:27:07;100494.81;;;18.04;62.92
14204;BME280;7185;51.854;6.622;2023-11-19T11:29:54;100493.13;;;17.83;62.66
14204;BME280;7185;51.854;6.622;2023-11-19T11:32:35;100478.28;;;18.32;61.97
14204;BME280;7185;51.854;6.622;2023-11-19T11:35:19;100486.50;;;19.10;60.88
14204;BME280;7185;51.854;6.622;2023-11-19T11:38:00;100481.97;;;19.59;58.93
14204;BME280;7185;51.854;6.622;2023-11-19T11:40:34;100479.72;;;20.43;55.93
14204;BME280;7185;51.854;6.622;2023-11-19T11:43:46;100484.56;;;20.79;55.27
14204;BME280;7185;51.854;6.622;2023-11-19T11:46:55;100482.72;;;21.23;52.60
14204;BME280;7185;51.854;6.622;2023-11-19T11:49:28;100491.69;;;20.50;54.18
14204;BME280;7185;51.854;6.622;2023-11-19T11:52:03;100469.09;;;19.67;56.05
14204;BME280;7185;51.854;6.622;2023-11-19T11:54:35;100471.13;;;19.32;56.72
14204;BME280;7185;51.854;6.622;2023-11-19T11:57:08;100475.53;;;19.01;58.72
14204;BME280;7185;51.854;6.622;2023-11-19T11:59:57;100464.91;;;19.01;58.38
14204;BME280;7185;51.854;6.622;2023-11-19T12:02:31;100469.53;;;19.13;59.00
14204;BME280;7185;51.854;6.622;2023-11-19T12:05:04;100477.38;;;18.83;58.51
14204;BME280;7185;51.854;6.622;2023-11-19T12:07:38;100454.50;;;19.74;58.55
14204;BME280;7185;51.854;6.622;2023-11-19T12:10:11;100455.56;;;20.17;56.56
14204;BME280;7185;51.854;6.622;2023-11-19T12:12:43;100459.63;;;20.95;53.55
14204;BME280;7185;51.854;6.622;2023-11-19T12:15:16;100446.13;;;20.11;54.54
14204;BME280;7185;51.854;6.622;2023-11-19T12:17:50;100451.78;;;19.60;55.35
14204;BME280;7185;51.854;6.622;2023-11-19T12:20:23;100451.72;;;19.46;55.85
14204;BME280;7185;51.854;6.622;2023-11-19T12:23:04;100453.06;;;19.22;57.38
14204;BME280;7185;51.854;6.622;2023-11-19T12:25:38;100441.19;;;19.28;56.76
14204;BME280;7185;51.854;6.622;2023-11-19T12:28:12;100440.28;;;18.81;58.82
14204;BME280;7185;51.854;6.622;2023-11-19T12:30:45;100437.97;;;19.07;58.33
14204;BME280;7185;51.854;6.622;2023-11-19T12:33:21;100433.97;;;19.00;59.02
14204;BME280;7185;51.854;6.622;2023-11-19T12:36:01;100432.22;;;18.33;59.60
14204;BME280;7185;51.854;6.622;2023-11-19T12:38:35;100432.16;;;18.51;60.59
14204;BME280;7185;51.854;6.622;2023-11-19T12:41:13;100426.03;;;18.82;60.05
14204;BME280;7185;51.854;6.622;2023-11-19T12:43:53;100436.53;;;18.52;60.12
14204;BME280;7185;51.854;6.622;2023-11-19T12:46:26;100422.97;;;18.74;60.07
14204;BME280;7185;51.854;6.622;2023-11-19T12:48:58;100428.06;;;18.11;60.92
14204;BME280;7185;51.854;6.622;2023-11-19T12:51:31;100435.22;;;18.76;60.33
14204;BME280;7185;51.854;6.622;2023-11-19T12:54:03;100430.69;;;19.10;60.22
14204;BME280;7185;51.854;6.622;2023-11-19T12:56:35;100438.81;;;20.00;57.77
14204;BME280;7185;51.854;6.622;2023-11-19T12:59:11;100421.06;;;20.15;55.83
14204;BME280;7185;51.854;6.622;2023-11-19T13:01:59;100416.75;;;19.68;54.59
14204;BME280;7185;51.854;6.622;2023-11-19T13:04:37;100443.66;;;19.78;56.29
14204;BME280;7185;51.854;6.622;2023-11-19T13:07:11;100449.13;;;19.30;57.11
14204;BME280;7185;51.854;6.622;2023-11-19T13:09:43;100440.75;;;19.52;57.08
14204;BME280;7185;51.854;6.622;2023-11-19T13:12:31;100452.00;;;19.41;56.96
14204;BME280;7185;51.854;6.622;2023-11-19T13:15:22;100450.03;;;20.34;55.10
14204;BME280;7185;51.854;6.622;2023-11-19T13:18:02;100453.47;;;20.80;53.81
14204;BME280;7185;51.854;6.622;2023-11-19T13:20:40;100440.97;;;21.77;52.37
14204;BME280;7185;51.854;6.622;2023-11-19T13:23:30;100452.88;;;21.31;50.98
14204;BME280;7185;51.854;6.622;2023-11-19T13:26:02;100435.63;;;21.77;50.40
14204;BME280;7185;51.854;6.622;2023-11-19T13:28:42;100433.97;;;22.90;49.91
14204;BME280;7185;51.854;6.622;2023-11-19T13:31:22;100436.19;;;22.34;47.40
14204;BME280;7185;51.854;6.622;2023-11-19T13:34:04;100459.22;;;21.83;49.20
14204;BME280;7185;51.854;6.622;2023-11-19T13:36:45;100460.31;;;21.26;50.54
14204;BME280;7185;51.854;6.622;2023-11-19T13:39:23;100426.03;;;22.26;48.71
14204;BME280;7185;51.854;6.622;2023-11-19T13:42:13;100434.88;;;22.65;47.19